ENKR/KKN METAR and TAF weather

Enter ICAO airport designator
Station Type Date Time Source
ENKR METAR 2019/04/21 22:20 UTC NOAA

ENKR 212220Z 25016KT CAVOK 03/M01 Q1005 RMK WIND 731FT 25030KT


Station Type Date Time Source
ENKR Decoded METAR 2019/04/21 22:20 UTC NOAA

Kirkenes Lufthavn, Norway (ENKR) 69-44N 029-54E 91M
Apr 21, 2019 - 06:20 PM EDT / 2019.04.21 2220 UTC
Wind: from the WSW (250 degrees) at 18 MPH (16 KT):0
Visibility: greater than 7 mile(s):0
Temperature: 37 F (3 C)
Dew Point: 30 F (-1 C)
Relative Humidity: 74%
Pressure (altimeter): 29.68 in. Hg (1005 hPa)
ob: ENKR 212220Z 25016KT CAVOK 03/M01 Q1005 RMK WIND 731FT 25030KT
cycle: 22

Station Type Date Time Source
ENKR TAF 2017/08/31 21:36 UTC NOAA

TAF TAF ENKR 312300Z 3121/0109 29005KT 9999 FEW020 SCT040

Example: see airport list